This is the latest recevied weather packets stored in our database for station/object IR4UCA. If no packets are shown the sender has not sent any weather packets the latest 10 day(s).
| Time | Temp. | Humidity | Pressure | Rain* | Wind** | Luminosity | Snow |
|---|---|---|---|---|---|---|---|
| 1777265385 | 14.44° C | 72% | 1017.7 hPa | 0 mm | - | - | - |
| 1777264784 | 14.44° C | 70% | 1017.6 hPa | 0 mm | - | - | - |
| 1777264185 | 14.44° C | 69% | 1017.6 hPa | 0 mm | - | - | - |
| 1777237184 | 20° C | 53% | 1016.5 hPa | 0 mm | - | - | - |
| 1777236592 | 20.56° C | 53% | 1016.5 hPa | 0 mm | - | - | - |
| 1777235984 | 20.56° C | 54% | 1016.6 hPa | 0 mm | - | - | - |
| 1777235385 | 20.56° C | 54% | 1016.4 hPa | 0 mm | - | - | - |
| 1777234784 | 21.11° C | 55% | 1016.4 hPa | 0 mm | - | - | - |
| 1777234184 | 21.11° C | 55% | 1016.5 hPa | 0 mm | - | - | - |
| 1777232994 | 21.11° C | 55% | 1016.3 hPa | 0 mm | - | - | - |
| 1777232384 | 21.67° C | 56% | 1016.2 hPa | 0 mm | - | - | - |
| 1777231784 | 21.67° C | 56% | 1016.2 hPa | 0 mm | - | - | - |
| 1777231184 | 21.67° C | 55% | 1016.1 hPa | 0 mm | - | - | - |
| 1777230584 | 22.22° C | 56% | 1016 hPa | 0 mm | - | - | - |
| 1777229986 | 22.78° C | 55% | 1015.9 hPa | 0 mm | - | - | - |
| 1777229386 | 22.78° C | 55% | 1015.9 hPa | 0 mm | - | - | - |
| 1777228784 | 23.33° C | 53% | 1015.7 hPa | 0 mm | - | - | - |
| 1777228185 | 23.33° C | 54% | 1015.7 hPa | 0 mm | - | - | - |
| 1777227584 | 23.89° C | 55% | 1015.6 hPa | 0 mm | - | - | - |
| 1777226984 | 23.89° C | 55% | 1015.6 hPa | 0 mm | - | - | - |
| 1777226384 | 23.89° C | 53% | 1015.4 hPa | 0 mm | - | - | - |
| 1777225184 | 24.44° C | 52% | 1015.4 hPa | 0 mm | - | - | - |
| 1777223984 | 25° C | 51% | 1015.3 hPa | 0 mm | - | - | - |
| 1777223386 | 25.56° C | 50% | 1015.4 hPa | 0 mm | - | - | - |
| 1777222786 | 25.56° C | 49% | 1015.4 hPa | 0 mm | - | - | - |
* Rain latest hour (hover to see other rain measurements)
** Current wind speed in m/s (hover to see current wind gust speed)